TimePST,TemperatureF,Dew PointF,Humidity,Sea Level PressureIn,VisibilityMPH,Wind Direction,Wind SpeedMPH,Gust SpeedMPH,PrecipitationIn,Events,Conditions,WindDirDegrees,DateUTC
12:53 AM,46.0,37.0,71,30.01,10.0,Calm,Calm,-,N/A,,Clear,0,2013-02-21 08:53:00
1:53 AM,45.0,37.9,76,30.01,10.0,Calm,Calm,-,N/A,,Clear,0,2013-02-21 09:53:00
2:53 AM,44.6,37.4,76,29.99,10.0,Calm,Calm,-,N/A,,Clear,0,2013-02-21 10:53:00
3:53 AM,44.1,39.0,82,30.00,10.0,East,3.5,-,N/A,,Clear,80,2013-02-21 11:53:00
4:53 AM,44.1,37.9,79,30.01,10.0,East,6.9,-,N/A,,Clear,90,2013-02-21 12:53:00
5:53 AM,43.0,37.9,82,30.02,10.0,ENE,3.5,-,N/A,,Partly Cloudy,70,2013-02-21 13:53:00
6:53 AM,44.1,37.9,79,30.03,10.0,Calm,Calm,-,N/A,,Partly Cloudy,0,2013-02-21 14:53:00
7:53 AM,48.9,39.9,71,30.05,10.0,ENE,3.5,-,N/A,,Mostly Cloudy,60,2013-02-21 15:53:00
8:53 AM,54.0,42.1,64,30.04,10.0,East,5.8,-,N/A,,Mostly Cloudy,80,2013-02-21 16:53:00
9:53 AM,57.0,43.0,59,30.06,10.0,Variable,3.5,-,N/A,,Mostly Cloudy,0,2013-02-21 17:53:00
10:53 AM,57.0,42.1,57,30.05,10.0,Variable,3.5,-,N/A,,Mostly Cloudy,0,2013-02-21 18:53:00
11:53 AM,60.1,39.9,47,30.01,10.0,Variable,6.9,-,N/A,,Overcast,0,2013-02-21 19:53:00
12:53 PM,59.0,42.1,53,30.00,10.0,Calm,Calm,-,N/A,,Mostly Cloudy,0,2013-02-21 20:53:00
1:53 PM,61.0,43.0,52,29.99,10.0,Variable,3.5,-,N/A,,Mostly Cloudy,0,2013-02-21 21:53:00
2:53 PM,61.0,39.9,46,29.98,10.0,Calm,Calm,-,N/A,,Partly Cloudy,0,2013-02-21 22:53:00
3:53 PM,61.0,39.9,46,29.98,10.0,NW,9.2,-,N/A,,Mostly Cloudy,310,2013-02-21 23:53:00
4:53 PM,59.0,39.9,49,29.98,10.0,WNW,15.0,-,N/A,,Partly Cloudy,290,2013-02-22 00:53:00
5:53 PM,55.9,41.0,57,30.01,10.0,West,12.7,-,N/A,,Clear,280,2013-02-22 01:53:00
6:53 PM,55.0,41.0,59,30.04,10.0,WNW,9.2,-,N/A,,Clear,290,2013-02-22 02:53:00
7:53 PM,55.0,42.1,62,30.06,10.0,West,5.8,-,N/A,,Clear,280,2013-02-22 03:53:00
8:53 PM,51.1,42.1,71,30.07,10.0,WNW,5.8,-,N/A,,Clear,290,2013-02-22 04:53:00
9:53 PM,52.0,39.0,61,30.08,10.0,Calm,Calm,-,N/A,,Clear,0,2013-02-22 05:53:00
10:53 PM,50.0,39.0,66,30.09,10.0,Calm,Calm,-,N/A,,Clear,0,2013-02-22 06:53:00
11:53 PM,48.0,39.9,74,30.10,10.0,Calm,Calm,-,N/A,,Clear,0,2013-02-22 07:53:00